createdAt,value
2018-06-04T00:00:55.885Z,6.10
2018-06-04T00:03:24.886Z,6.17
2018-06-04T00:05:53.966Z,6.20
2018-06-04T00:08:22.975Z,6.50
2018-06-04T00:10:52.083Z,6.43
2018-06-04T00:13:21.152Z,6.20
2018-06-04T00:15:50.637Z,6.00
2018-06-04T00:18:19.198Z,6.03
2018-06-04T00:20:48.193Z,6.57
2018-06-04T00:23:17.207Z,5.70
2018-06-04T00:25:46.223Z,6.20
2018-06-04T00:28:15.310Z,6.80
2018-06-04T00:30:44.294Z,6.17
2018-06-04T00:33:13.327Z,6.80
2018-06-04T00:35:42.335Z,6.13
2018-06-04T00:38:11.357Z,6.30
2018-06-04T00:40:40.369Z,6.10
2018-06-04T00:43:09.417Z,6.30
2018-06-04T00:45:38.420Z,6.50
2018-06-04T00:48:07.487Z,7.27
2018-06-04T00:50:36.483Z,7.13
2018-06-04T00:53:05.517Z,6.67
2018-06-04T00:55:44.361Z,6.43
2018-06-04T00:58:13.399Z,6.67
2018-06-04T01:00:42.425Z,6.73
2018-06-04T01:03:11.444Z,6.87
2018-06-04T01:05:40.475Z,6.90
2018-06-04T01:08:09.507Z,6.90
2018-06-04T01:10:38.555Z,7.17
2018-06-04T01:13:07.615Z,7.63
2018-06-04T01:15:36.689Z,7.77
2018-06-04T01:18:05.769Z,7.57
2018-06-04T01:20:34.323Z,7.27
2018-06-04T01:23:03.321Z,7.27
2018-06-04T01:25:32.366Z,7.37
2018-06-04T01:28:01.361Z,7.00
2018-06-04T01:30:30.424Z,8.03
2018-06-04T01:32:59.451Z,6.57
2018-06-04T01:35:28.996Z,6.73
2018-06-04T01:37:58.803Z,7.03
2018-06-04T01:40:27.823Z,6.63
2018-06-04T01:42:56.802Z,7.50
2018-06-04T01:45:25.841Z,7.80
2018-06-04T01:47:54.847Z,8.20
2018-06-04T01:50:23.940Z,6.90
2018-06-04T01:52:52.960Z,8.27
2018-06-04T01:55:22.070Z,8.80
2018-06-04T01:57:51.093Z,8.77
2018-06-04T02:00:20.141Z,8.60
2018-06-04T02:02:49.184Z,8.17
2018-06-04T02:05:18.273Z,7.23
2018-06-04T02:07:47.287Z,7.80
2018-06-04T02:10:16.319Z,7.97
2018-06-04T02:12:45.357Z,8.23
2018-06-04T02:15:14.404Z,8.00
2018-06-04T02:17:43.391Z,7.80
2018-06-04T02:20:12.455Z,7.90
2018-06-04T02:22:41.442Z,7.63
2018-06-04T02:25:10.463Z,8.10
2018-06-04T02:27:39.447Z,9.10
2018-06-04T02:30:08.465Z,8.60
2018-06-04T02:32:37.472Z,9.07
2018-06-04T02:35:06.543Z,8.47
2018-06-04T02:37:35.601Z,9.03
2018-06-04T02:40:04.751Z,8.37
2018-06-04T02:42:33.793Z,8.10
2018-06-04T02:45:02.804Z,8.63
2018-06-04T02:47:31.842Z,7.53
2018-06-04T02:50:00.920Z,8.70
2018-06-04T02:52:29.952Z,8.67
2018-06-04T02:54:59.004Z,8.40
2018-06-04T02:57:28.115Z,8.50
2018-06-04T02:59:57.135Z,8.27
2018-06-04T03:02:26.184Z,8.53
2018-06-04T03:04:55.219Z,9.33
2018-06-04T03:07:24.244Z,8.40
2018-06-04T03:09:53.244Z,8.20
2018-06-04T03:12:21.814Z,9.47
2018-06-04T03:14:50.803Z,9.33
2018-06-04T03:17:19.844Z,8.07
2018-06-04T03:19:48.912Z,7.90
2018-06-04T03:22:17.947Z,48.10
2018-06-04T03:24:46.997Z,9.57
2018-06-04T03:27:16.102Z,8.80
2018-06-04T03:29:45.131Z,9.77
2018-06-04T03:32:14.124Z,9.07
2018-06-04T03:34:43.173Z,8.20
2018-06-04T03:37:12.197Z,9.57
2018-06-04T03:39:41.234Z,9.50
2018-06-04T03:42:10.215Z,9.80
2018-06-04T03:44:39.248Z,9.37
2018-06-04T03:47:08.292Z,9.20
2018-06-04T03:49:37.354Z,10.73
2018-06-04T03:52:06.435Z,9.30
2018-06-04T03:54:35.483Z,10.80
2018-06-04T03:57:04.499Z,9.10
2018-06-04T03:59:33.546Z,10.77
2018-06-04T04:02:02.535Z,9.83
2018-06-04T04:04:31.583Z,10.70
2018-06-04T04:07:00.576Z,10.50
2018-06-04T04:09:29.633Z,10.33
2018-06-04T04:11:58.660Z,10.77
2018-06-04T04:14:27.697Z,11.70
2018-06-04T04:16:56.720Z,10.50
2018-06-04T04:19:25.790Z,10.87
2018-06-04T04:21:54.840Z,10.20
2018-06-04T04:24:23.883Z,12.80
2018-06-04T04:26:52.893Z,10.80
2018-06-04T04:29:21.946Z,11.83
2018-06-04T04:31:50.998Z,11.87
2018-06-04T04:34:20.019Z,12.20
2018-06-04T04:36:49.040Z,10.60
2018-06-04T04:39:18.044Z,10.00
2018-06-04T04:41:47.099Z,10.17
2018-06-04T04:44:17.132Z,9.17
2018-06-04T04:46:46.278Z,10.13
2018-06-04T04:49:14.802Z,10.33
2018-06-04T04:51:43.843Z,12.10
2018-06-04T04:54:13.099Z,11.43
2018-06-04T04:56:42.185Z,11.90
2018-06-04T04:59:11.209Z,10.87
2018-06-04T05:01:39.798Z,10.40
2018-06-04T05:04:08.354Z,11.40
2018-06-04T05:06:37.383Z,12.00
2018-06-04T05:09:09.132Z,10.77
2018-06-04T05:11:38.236Z,10.60
2018-06-04T05:14:07.283Z,9.67
2018-06-04T05:16:36.300Z,9.93
2018-06-04T05:19:05.392Z,9.47
2018-06-04T05:21:34.412Z,9.70
2018-06-04T05:24:03.447Z,9.07
2018-06-04T05:26:32.495Z,9.47
2018-06-04T05:29:01.598Z,8.83
2018-06-04T05:31:30.628Z,9.03
2018-06-04T05:33:59.651Z,8.90
2018-06-04T05:36:28.729Z,8.10
2018-06-04T05:38:57.721Z,8.47
2018-06-04T05:41:26.768Z,8.93
2018-06-04T05:43:55.797Z,9.83
2018-06-04T05:46:24.913Z,9.50
2018-06-04T05:48:54.005Z,10.10
2018-06-04T05:51:23.252Z,8.17
2018-06-04T05:53:52.224Z,7.80
2018-06-04T05:56:21.306Z,7.30
2018-06-04T05:58:50.364Z,7.20
2018-06-04T06:01:19.450Z,8.47
2018-06-04T06:03:48.536Z,7.07
2018-06-04T06:06:17.564Z,7.57
2018-06-04T06:08:46.147Z,7.33
2018-06-04T06:11:15.153Z,6.63
2018-06-04T06:13:44.195Z,6.63
2018-06-04T06:16:13.261Z,7.70
2018-06-04T06:18:42.324Z,6.93
2018-06-04T06:21:11.355Z,7.30
2018-06-04T06:23:40.365Z,7.60
2018-06-04T06:26:09.390Z,8.27
2018-06-04T06:28:38.891Z,7.03
2018-06-04T06:31:07.971Z,7.53
2018-06-04T06:33:36.981Z,7.40
2018-06-04T06:36:06.110Z,6.90
2018-06-04T06:38:35.122Z,8.00
2018-06-04T06:41:04.172Z,9.15
2018-06-04T06:43:33.180Z,8.27
2018-06-04T06:46:02.248Z,8.60
2018-06-04T06:48:31.248Z,8.33
2018-06-04T06:51:00.280Z,10.23
2018-06-04T06:53:29.346Z,8.13
2018-06-04T06:55:58.517Z,9.07
2018-06-04T06:58:27.562Z,9.00
2018-06-04T07:00:56.590Z,9.90
2018-06-04T07:03:25.584Z,8.70
2018-06-04T07:05:54.621Z,8.30
2018-06-04T07:08:23.659Z,8.70
2018-06-04T07:10:52.686Z,9.27
2018-06-04T07:13:21.707Z,9.50
2018-06-04T07:15:50.796Z,7.90
2018-06-04T07:18:19.897Z,10.00
2018-06-04T07:20:48.965Z,9.10
2018-06-04T07:23:18.061Z,9.90
2018-06-04T07:25:47.110Z,9.77
2018-06-04T07:28:16.107Z,9.23
2018-06-04T07:30:45.184Z,10.50
2018-06-04T07:33:14.167Z,10.47
2018-06-04T07:35:43.226Z,11.57
2018-06-04T07:38:12.287Z,9.40
2018-06-04T07:40:41.269Z,9.90
2018-06-04T07:43:10.360Z,8.53
2018-06-04T07:45:39.368Z,9.67
2018-06-04T07:48:08.408Z,7.93
2018-06-04T07:50:37.461Z,9.30
2018-06-04T07:53:06.479Z,8.23
2018-06-04T07:55:35.509Z,8.90
2018-06-04T07:58:04.647Z,8.70
2018-06-04T08:00:33.693Z,8.60
2018-06-04T08:03:02.708Z,8.80
2018-06-04T08:05:31.861Z,8.60
2018-06-04T08:08:00.940Z,9.73
2018-06-04T08:10:29.961Z,8.90
2018-06-04T08:12:58.987Z,7.50
2018-06-04T08:15:28.072Z,9.40
2018-06-04T08:17:57.226Z,8.70
2018-06-04T08:20:26.234Z,8.07
2018-06-04T08:22:55.347Z,8.17
2018-06-04T08:25:24.391Z,9.27
2018-06-04T08:27:53.437Z,7.97
2018-06-04T08:30:22.494Z,8.17
2018-06-04T08:32:51.576Z,9.30
2018-06-04T08:35:20.615Z,8.50
2018-06-04T08:37:49.643Z,8.00
2018-06-04T08:40:18.727Z,8.70
2018-06-04T08:42:47.725Z,8.27
2018-06-04T08:45:16.777Z,9.10
2018-06-04T08:47:45.810Z,8.07
2018-06-04T08:50:14.879Z,7.93
2018-06-04T08:52:43.879Z,7.50
2018-06-04T08:55:12.939Z,7.80
2018-06-04T08:57:41.911Z,7.17
2018-06-04T09:00:10.958Z,6.93
2018-06-04T09:02:39.963Z,8.77
2018-06-04T09:05:08.965Z,7.70
2018-06-04T09:07:37.975Z,6.70
2018-06-04T09:10:07.031Z,7.20
2018-06-04T09:12:36.123Z,6.90
2018-06-04T09:15:05.289Z,7.33
2018-06-04T09:17:34.284Z,7.67
2018-06-04T09:20:03.351Z,7.47
2018-06-04T09:22:32.358Z,7.00
2018-06-04T09:25:01.384Z,5.47
2018-06-04T09:27:30.439Z,6.27
2018-06-04T09:29:59.429Z,7.30
2018-06-04T09:32:28.466Z,6.90
2018-06-04T09:34:57.469Z,6.20
2018-06-04T09:37:26.501Z,6.70
2018-06-04T09:39:55.514Z,7.20
2018-06-04T09:42:24.531Z,6.90
2018-06-04T09:44:53.519Z,6.37
2018-06-04T09:47:22.568Z,7.10
2018-06-04T09:49:51.572Z,6.40
2018-06-04T09:52:20.666Z,5.50
2018-06-04T09:54:49.663Z,6.90
2018-06-04T09:57:18.699Z,5.97
2018-06-04T09:59:47.703Z,6.37
2018-06-04T10:02:16.788Z,6.60
2018-06-04T10:04:45.906Z,5.80
2018-06-04T10:07:14.867Z,5.60
2018-06-04T10:09:43.911Z,6.30
2018-06-04T10:12:12.977Z,5.43
2018-06-04T10:14:42.002Z,5.20
2018-06-04T10:17:11.085Z,5.07
2018-06-04T10:19:40.137Z,5.00
2018-06-04T10:22:09.889Z,5.67
2018-06-04T10:24:39.076Z,4.67
2018-06-04T10:27:08.199Z,5.03
2018-06-04T10:29:37.496Z,5.80
2018-06-04T10:32:06.577Z,4.70
2018-06-04T10:34:35.609Z,5.10
2018-06-04T10:37:04.652Z,5.07
2018-06-04T10:39:33.668Z,4.90
2018-06-04T10:42:03.149Z,5.07
2018-06-04T10:44:32.168Z,5.20
2018-06-04T10:47:01.205Z,4.30
2018-06-04T10:49:30.235Z,4.90
2018-06-04T10:51:59.256Z,4.07
2018-06-04T10:54:28.312Z,4.47
2018-06-04T10:56:57.391Z,4.53
2018-06-04T10:59:26.405Z,4.50
2018-06-04T11:01:55.443Z,4.40
2018-06-04T11:04:24.475Z,4.50
2018-06-04T11:06:53.493Z,4.67
2018-06-04T11:09:22.524Z,4.50
2018-06-04T11:11:51.512Z,4.13
2018-06-04T11:14:20.574Z,4.47
2018-06-04T11:16:49.551Z,3.67
2018-06-04T11:19:18.596Z,4.03
2018-06-04T11:21:47.606Z,3.73
2018-06-04T11:24:16.666Z,3.90
2018-06-04T11:26:45.780Z,4.17
2018-06-04T11:29:14.779Z,4.20
2018-06-04T11:31:43.870Z,4.50
2018-06-04T11:34:12.915Z,3.60
2018-06-04T11:36:41.924Z,4.20
2018-06-04T11:39:11.019Z,4.40
2018-06-04T11:41:40.067Z,3.63
2018-06-04T11:44:09.062Z,4.20
2018-06-04T11:46:38.091Z,3.83
2018-06-04T11:49:07.090Z,4.00
2018-06-04T11:51:36.127Z,4.93
2018-06-04T11:54:05.149Z,3.63
2018-06-04T11:56:35.018Z,3.87
2018-06-04T11:59:04.660Z,4.70
2018-06-04T12:01:34.887Z,4.40
2018-06-04T12:04:03.953Z,4.17
2018-06-04T12:06:33.006Z,4.20
2018-06-04T12:09:02.000Z,4.33
2018-06-04T12:11:31.261Z,4.27
2018-06-04T12:14:00.300Z,4.57
2018-06-04T12:16:29.331Z,4.03
2018-06-04T12:18:58.412Z,4.30
2018-06-04T12:21:27.499Z,4.27
2018-06-04T12:23:56.572Z,4.03
2018-06-04T12:26:25.654Z,4.30
2018-06-04T12:28:54.715Z,4.20
2018-06-04T12:31:23.759Z,4.43
2018-06-04T12:33:52.789Z,4.13
2018-06-04T12:36:21.823Z,4.17
2018-06-04T12:38:50.837Z,3.93
2018-06-04T12:41:19.826Z,4.03
2018-06-04T12:43:48.891Z,3.83
2018-06-04T12:46:17.903Z,4.70
2018-06-04T12:48:47.003Z,4.40
2018-06-04T12:51:16.026Z,4.43
2018-06-04T12:53:45.092Z,4.53
2018-06-04T12:56:14.171Z,4.03
2018-06-04T12:58:43.219Z,4.40
2018-06-04T13:01:12.259Z,4.27
2018-06-04T13:03:41.261Z,3.70
2018-06-04T13:06:10.295Z,3.80
2018-06-04T13:08:39.330Z,4.10
2018-06-04T13:11:08.416Z,4.97
2018-06-04T13:13:37.422Z,4.80
2018-06-04T13:16:06.617Z,4.10
2018-06-04T13:18:35.631Z,4.10
2018-06-04T13:21:04.667Z,4.07
2018-06-04T13:23:33.747Z,4.50
2018-06-04T13:26:02.742Z,3.90
2018-06-04T13:28:31.796Z,4.40
2018-06-04T13:31:00.842Z,4.20
2018-06-04T13:33:29.910Z,4.37
2018-06-04T13:35:58.905Z,4.70
2018-06-04T13:38:27.916Z,3.97
2018-06-04T13:40:56.902Z,4.13
2018-06-04T13:43:25.942Z,4.90
2018-06-04T13:45:54.975Z,4.50
2018-06-04T13:48:24.019Z,4.40
2018-06-04T13:50:53.180Z,4.77
2018-06-04T13:53:22.214Z,5.20
2018-06-04T13:55:51.247Z,4.40
2018-06-04T13:58:20.255Z,4.47
2018-06-04T14:00:49.306Z,3.97
2018-06-04T14:03:18.368Z,4.93
2018-06-04T14:05:47.397Z,4.50
2018-06-04T14:08:16.499Z,4.90
2018-06-04T14:10:45.559Z,4.13
2018-06-04T14:13:14.583Z,5.17
2018-06-04T14:15:43.632Z,4.40
2018-06-04T14:18:12.656Z,4.17
2018-06-04T14:20:41.703Z,4.13
2018-06-04T14:23:10.726Z,4.07
2018-06-04T14:25:39.758Z,4.10
2018-06-04T14:28:08.753Z,3.80
2018-06-04T14:30:37.823Z,4.57
2018-06-04T14:33:06.953Z,4.67
2018-06-04T14:35:35.495Z,3.67
2018-06-04T14:38:04.591Z,4.53
2018-06-04T14:40:33.592Z,4.77
2018-06-04T14:43:02.664Z,4.10
2018-06-04T14:45:31.678Z,4.20
2018-06-04T14:48:00.712Z,4.60
2018-06-04T14:50:29.692Z,4.53
2018-06-04T14:52:58.718Z,4.80
2018-06-04T14:55:28.202Z,5.10
2018-06-04T14:57:57.245Z,4.40
2018-06-04T15:00:26.295Z,4.60
2018-06-04T15:02:55.326Z,5.30
2018-06-04T15:05:24.463Z,4.63
2018-06-04T15:07:53.493Z,5.00
2018-06-04T15:10:22.551Z,5.80
2018-06-04T15:12:51.541Z,5.53
2018-06-04T15:15:20.605Z,5.43
2018-06-04T15:17:50.115Z,5.73
2018-06-04T15:20:18.795Z,5.10
2018-06-04T15:22:47.815Z,5.27
2018-06-04T15:25:16.984Z,4.77
2018-06-04T15:27:46.017Z,5.33
2018-06-04T15:30:15.003Z,5.13
2018-06-04T15:32:44.155Z,5.20
2018-06-04T15:35:17.408Z,5.40
2018-06-04T15:37:49.263Z,5.00
2018-06-04T15:40:20.356Z,4.90
2018-06-04T15:42:52.441Z,5.03
2018-06-04T15:45:25.978Z,4.40
2018-06-04T15:47:57.687Z,4.60
2018-06-04T15:50:29.236Z,4.63
2018-06-04T15:52:58.291Z,5.00
2018-06-04T15:55:27.328Z,4.57
2018-06-04T15:57:56.435Z,4.23
2018-06-04T16:00:25.538Z,4.70
2018-06-04T16:02:54.772Z,4.30
2018-06-04T16:05:23.834Z,4.93
2018-06-04T16:07:52.911Z,3.93
2018-06-04T16:10:22.000Z,4.20
2018-06-04T16:12:51.111Z,4.33
2018-06-04T16:15:20.195Z,4.13
2018-06-04T16:17:49.183Z,4.50
2018-06-04T16:20:18.781Z,4.60
2018-06-04T16:22:47.814Z,4.47
2018-06-04T16:25:16.882Z,3.83
2018-06-04T16:27:45.959Z,4.57
2018-06-04T16:30:14.979Z,4.50
2018-06-04T16:32:43.994Z,3.83
2018-06-04T16:35:12.651Z,4.43
2018-06-04T16:37:41.712Z,3.97
2018-06-04T16:40:10.710Z,4.10
2018-06-04T16:42:39.748Z,3.87
2018-06-04T16:45:08.805Z,3.20
2018-06-04T16:47:37.966Z,3.60
2018-06-04T16:50:07.057Z,4.00
2018-06-04T16:52:37.016Z,3.63
2018-06-04T16:55:06.058Z,3.47
2018-06-04T16:57:35.161Z,4.00
2018-06-04T17:00:04.322Z,3.70
2018-06-04T17:02:33.461Z,4.00
2018-06-04T17:05:02.777Z,3.60
2018-06-04T17:07:43.268Z,4.00
2018-06-04T17:10:12.336Z,3.57
2018-06-04T17:12:41.414Z,3.50
2018-06-04T17:15:10.431Z,3.63
2018-06-04T17:17:39.559Z,4.10
2018-06-04T17:20:08.647Z,3.93
2018-06-04T17:22:37.752Z,3.53
2018-06-04T17:25:06.840Z,4.17
2018-06-04T17:27:35.980Z,3.83
2018-06-04T17:30:04.717Z,4.27
2018-06-04T17:32:33.739Z,4.30
2018-06-04T17:35:02.737Z,4.53
2018-06-04T17:37:31.820Z,4.87
2018-06-04T17:40:00.835Z,4.40
2018-06-04T17:42:29.869Z,4.33
2018-06-04T17:44:58.974Z,4.30
2018-06-04T17:47:28.023Z,4.53
2018-06-04T17:49:57.225Z,4.50
2018-06-04T17:52:26.231Z,4.40
2018-06-04T17:54:55.371Z,5.00
2018-06-04T17:57:24.439Z,5.37
2018-06-04T17:59:53.562Z,5.00
2018-06-04T18:02:22.707Z,4.87
2018-06-04T18:04:51.825Z,5.03
2018-06-04T18:07:20.915Z,5.57
2018-06-04T18:09:49.942Z,5.37
2018-06-04T18:12:18.990Z,5.10
2018-06-04T18:14:48.026Z,5.33
2018-06-04T18:17:17.070Z,5.37
2018-06-04T18:19:46.109Z,5.53
2018-06-04T18:22:15.190Z,6.70
2018-06-04T18:24:44.243Z,6.17
2018-06-04T18:27:13.240Z,6.00
2018-06-04T18:29:42.303Z,6.50
2018-06-04T18:32:11.335Z,5.17
2018-06-04T18:34:40.367Z,6.07
2018-06-04T18:37:09.394Z,5.93
2018-06-04T18:39:38.455Z,5.67
2018-06-04T18:42:07.639Z,6.10
2018-06-04T18:44:36.711Z,5.83
2018-06-04T18:47:05.763Z,5.60
2018-06-04T18:49:34.860Z,6.00
2018-06-04T18:52:03.915Z,6.60
2018-06-04T18:54:32.951Z,6.70
2018-06-04T18:57:01.991Z,5.87
2018-06-04T18:59:31.015Z,6.03
2018-06-04T19:02:00.182Z,6.30
2018-06-04T19:04:29.259Z,5.57
2018-06-04T19:06:58.428Z,6.43
2018-06-04T19:09:27.463Z,6.00
2018-06-04T19:11:56.489Z,6.10
2018-06-04T19:14:25.528Z,6.50
2018-06-04T19:16:54.636Z,5.60
2018-06-04T19:19:23.654Z,6.37
2018-06-04T19:21:52.957Z,6.17
2018-06-04T19:24:21.947Z,6.80
2018-06-04T19:26:51.006Z,5.93
2018-06-04T19:29:20.103Z,6.20
2018-06-04T19:31:49.125Z,6.63
2018-06-04T19:34:18.189Z,6.27
2018-06-04T19:36:47.230Z,5.70
2018-06-04T19:39:16.388Z,5.90
2018-06-04T19:41:45.394Z,7.03
2018-06-04T19:44:14.474Z,6.40
2018-06-04T19:46:43.479Z,6.13
2018-06-04T19:49:12.535Z,6.20
2018-06-04T19:51:41.589Z,6.00
2018-06-04T19:54:10.643Z,6.40
2018-06-04T19:56:39.697Z,6.70
2018-06-04T19:59:08.702Z,6.97
2018-06-04T20:01:37.808Z,7.17
2018-06-04T20:04:06.861Z,6.30
2018-06-04T20:06:35.942Z,6.80
2018-06-04T20:09:09.186Z,6.63
2018-06-04T20:11:39.102Z,5.93
2018-06-04T20:14:08.204Z,5.73
2018-06-04T20:16:37.247Z,6.80
2018-06-04T20:19:06.451Z,6.60
2018-06-04T20:21:35.496Z,7.20
2018-06-04T20:24:04.162Z,7.30
2018-06-04T20:26:33.244Z,7.00
2018-06-04T20:29:02.295Z,7.10
2018-06-04T20:31:31.419Z,7.73
2018-06-04T20:34:00.447Z,7.03
2018-06-04T20:36:29.499Z,6.70
2018-06-04T20:38:58.558Z,7.90
2018-06-04T20:41:27.606Z,7.60
2018-06-04T20:43:56.668Z,7.70
2018-06-04T20:46:25.707Z,7.83
2018-06-04T20:48:54.732Z,6.33
2018-06-04T20:51:23.759Z,6.70
2018-06-04T20:53:52.767Z,7.93
2018-06-04T20:56:21.848Z,7.10
2018-06-04T20:58:50.893Z,8.10
2018-06-04T21:01:19.938Z,8.13
2018-06-04T21:03:48.997Z,8.10
2018-06-04T21:06:18.051Z,7.43
2018-06-04T21:08:47.058Z,7.57
2018-06-04T21:11:16.096Z,7.40
2018-06-04T21:13:45.075Z,7.30
2018-06-04T21:16:14.096Z,7.23
2018-06-04T21:18:43.176Z,7.20
2018-06-04T21:21:12.209Z,7.60
2018-06-04T21:23:41.271Z,7.90
2018-06-04T21:26:10.281Z,7.80
2018-06-04T21:28:39.318Z,8.27
2018-06-04T21:31:08.357Z,7.13
2018-06-04T21:33:37.408Z,8.60
2018-06-04T21:36:06.443Z,7.70
2018-06-04T21:38:35.509Z,8.13
2018-06-04T21:41:04.615Z,8.20
2018-06-04T21:43:33.672Z,8.50
2018-06-04T21:46:02.712Z,8.20
2018-06-04T21:48:31.750Z,7.77
2018-06-04T21:51:00.745Z,7.80
2018-06-04T21:53:29.758Z,7.83
2018-06-04T21:55:58.775Z,7.80
2018-06-04T21:58:27.843Z,8.40
2018-06-04T22:00:56.879Z,9.23
2018-06-04T22:03:25.869Z,8.07
2018-06-04T22:05:54.910Z,9.10
2018-06-04T22:08:23.944Z,9.50
2018-06-04T22:10:53.226Z,8.73
2018-06-04T22:13:22.246Z,9.27
2018-06-04T22:15:51.300Z,8.97
2018-06-04T22:18:20.426Z,9.07
2018-06-04T22:20:49.442Z,8.57
2018-06-04T22:23:18.488Z,9.30
2018-06-04T22:25:47.506Z,8.83
2018-06-04T22:28:16.540Z,9.70
2018-06-04T22:30:45.576Z,9.30
2018-06-04T22:33:14.594Z,9.57
2018-06-04T22:35:44.618Z,10.10
2018-06-04T22:38:13.668Z,8.30
2018-06-04T22:40:42.662Z,7.73
2018-06-04T22:43:11.668Z,8.70
2018-06-04T22:45:40.714Z,9.33
2018-06-04T22:48:09.762Z,8.17
2018-06-04T22:50:38.773Z,8.07
2018-06-04T22:53:07.808Z,8.63
2018-06-04T22:55:36.815Z,8.80
2018-06-04T22:58:05.905Z,8.53
2018-06-04T23:00:35.851Z,7.63
2018-06-04T23:03:04.417Z,7.97
2018-06-04T23:05:33.417Z,9.07
2018-06-04T23:08:02.442Z,8.10
2018-06-04T23:10:31.447Z,8.50
2018-06-04T23:13:00.457Z,8.63
2018-06-04T23:15:29.515Z,8.20
2018-06-04T23:17:58.520Z,9.10
2018-06-04T23:20:27.592Z,7.97
2018-06-04T23:22:56.583Z,8.60
2018-06-04T23:25:25.643Z,8.93
2018-06-04T23:27:54.652Z,8.40
2018-06-04T23:30:23.695Z,9.00
2018-06-04T23:32:52.741Z,9.07
2018-06-04T23:35:21.734Z,9.37
2018-06-04T23:37:50.758Z,8.40
2018-06-04T23:40:19.746Z,8.67
2018-06-04T23:42:48.785Z,8.30
2018-06-04T23:45:17.868Z,8.70
2018-06-04T23:47:46.985Z,8.13
2018-06-04T23:50:15.988Z,8.93
2018-06-04T23:52:45.002Z,8.63
2018-06-04T23:55:14.025Z,8.73
2018-06-04T23:57:43.051Z,8.80
